Time;durP1;ratioP1;P1;durP2;ratioP2;P2;SDS_P1;SDS_P2;PMS_P1;PMS_P2;Temp;Humidity;BMP_temperature;BMP_pressure;BME280_temperature;BME280_humidity;BME280_pressure;Samples;Min_cycle;Max_cycle;Signal;HPM_P1;HPM_P2
2021/11/10 00:02:06;;;;;;;6.32;3.80;;;9.10;99.90;;;;;;5087437;28;20472;-72
2021/11/10 00:04:33;;;;;;;7.68;3.60;;;9.10;99.90;;;;;;5087656;28;20403;-71
2021/11/10 00:07:00;;;;;;;7.63;3.88;;;9.10;99.90;;;;;;5070907;28;20044;-71
2021/11/10 00:09:27;;;;;;;6.93;3.90;;;9.10;99.90;;;;;;5089396;28;20044;-71
2021/11/10 00:11:54;;;;;;;6.03;4.05;;;9.10;99.90;;;;;;5066722;28;20148;-71
2021/11/10 00:14:22;;;;;;;6.97;4.20;;;9.10;99.90;;;;;;5074070;28;20150;-70
2021/11/10 00:16:49;;;;;;;7.72;4.90;;;9.20;99.90;;;;;;5088057;28;20080;-70
2021/11/10 00:19:16;;;;;;;4.32;3.35;;;9.20;99.90;;;;;;5067761;28;20045;-71
2021/11/10 00:21:42;;;;;;;5.50;3.40;;;9.30;99.90;;;;;;5082978;28;20056;-70
2021/11/10 00:24:09;;;;;;;6.47;4.13;;;9.30;99.90;;;;;;5087314;28;20055;-71
2021/11/10 00:26:36;;;;;;;6.35;3.97;;;9.40;99.90;;;;;;5087230;28;20044;-71
2021/11/10 00:29:03;;;;;;;6.40;4.28;;;9.50;99.90;;;;;;5087801;28;20040;-70
2021/11/10 00:31:30;;;;;;;9.48;4.72;;;9.50;99.90;;;;;;5084533;28;20075;-70
2021/11/10 00:33:57;;;;;;;8.27;4.75;;;9.60;99.90;;;;;;5087985;28;20483;-71
2021/11/10 00:36:24;;;;;;;6.72;4.70;;;9.60;99.90;;;;;;5095157;28;20044;-71
2021/11/10 00:38:51;;;;;;;5.50;4.18;;;9.70;99.90;;;;;;5096276;28;20445;-69
2021/11/10 00:41:18;;;;;;;6.40;4.30;;;9.70;99.90;;;;;;5087089;28;20487;-71
2021/11/10 00:43:46;;;;;;;6.72;4.53;;;9.80;99.90;;;;;;5066653;28;20128;-70
2021/11/10 00:46:13;;;;;;;7.63;4.53;;;9.80;99.90;;;;;;5077564;28;20095;-71
2021/11/10 00:48:40;;;;;;;7.32;4.55;;;9.90;99.90;;;;;;5087385;28;20051;-70
2021/11/10 00:51:07;;;;;;;8.45;5.53;;;9.90;99.90;;;;;;5088256;28;20067;-71
2021/11/10 00:53:34;;;;;;;7.75;4.78;;;9.90;99.90;;;;;;5087594;28;20052;-70
2021/11/10 00:56:00;;;;;;;8.75;5.63;;;9.90;99.90;;;;;;5089054;28;20063;-70
2021/11/10 00:58:27;;;;;;;8.35;4.80;;;9.90;99.90;;;;;;5086607;28;20048;-70
2021/11/10 01:00:54;;;;;;;6.93;5.38;;;10.00;99.90;;;;;;5087270;28;20048;-70
2021/11/10 01:03:23;;;;;;;12.93;6.00;;;10.00;99.90;;;;;;5089194;28;20055;-71
2021/11/10 01:05:51;;;;;;;7.18;5.38;;;10.00;99.90;;;;;;5088725;28;20407;-70
2021/11/10 01:08:19;;;;;;;8.10;5.03;;;10.00;99.90;;;;;;5074029;28;20059;-69
2021/11/10 01:10:46;;;;;;;6.60;4.55;;;10.00;99.90;;;;;;5089975;28;20054;-69
2021/11/10 01:13:12;;;;;;;9.52;6.22;;;10.00;99.90;;;;;;5090823;28;20044;-69
2021/11/10 01:15:42;;;;;;;10.70;7.20;;;10.00;99.90;;;;;;5090806;28;20060;-70
2021/11/10 01:18:09;;;;;;;8.02;7.20;;;10.10;99.90;;;;;;5087255;28;20044;-70
2021/11/10 01:20:36;;;;;;;8.88;7.03;;;10.10;99.90;;;;;;5071746;28;20057;-70
2021/11/10 01:23:03;;;;;;;10.02;8.30;;;10.20;99.90;;;;;;5089875;28;20059;-71
2021/11/10 01:25:30;;;;;;;11.00;8.05;;;10.20;99.90;;;;;;5092082;28;20058;-70
2021/11/10 01:27:57;;;;;;;11.85;7.88;;;10.20;99.90;;;;;;5091505;28;20044;-69
2021/11/10 01:30:24;;;;;;;9.85;7.38;;;10.30;99.90;;;;;;5090226;28;20040;-70
2021/11/10 01:32:50;;;;;;;10.32;7.72;;;10.30;99.90;;;;;;5091976;28;20056;-70
2021/11/10 01:35:17;;;;;;;12.05;8.20;;;10.30;99.90;;;;;;5090447;28;20078;-70
2021/11/10 01:37:45;;;;;;;10.30;7.40;;;10.40;99.90;;;;;;5080757;28;20040;-69
2021/11/10 01:40:13;;;;;;;11.10;8.05;;;10.40;99.90;;;;;;5073734;28;20117;-69
2021/11/10 01:42:41;;;;;;;11.45;7.97;;;10.50;99.90;;;;;;5090580;28;20044;-70
2021/11/10 01:45:09;;;;;;;9.80;6.45;;;10.50;99.90;;;;;;5070344;28;20082;-70
2021/11/10 01:47:36;;;;;;;7.90;6.28;;;10.50;99.90;;;;;;5067250;28;20119;-69
2021/11/10 01:50:04;;;;;;;8.00;5.50;;;10.60;99.90;;;;;;5070718;28;20574;-69
2021/11/10 01:52:31;;;;;;;11.23;7.18;;;10.60;99.90;;;;;;5095958;28;20052;-69
2021/11/10 01:54:58;;;;;;;9.57;6.97;;;10.60;99.90;;;;;;5089861;28;20059;-69
2021/11/10 01:57:25;;;;;;;10.63;6.07;;;10.60;99.90;;;;;;5088879;28;20040;-72
2021/11/10 02:00:05;;;;;;;8.55;6.82;;;10.60;99.90;;;;;;5091651;28;20470;-69
2021/11/10 02:02:32;;;;;;;;;;;10.60;99.90;;;;;;5087518;28;20055;-71
2021/11/10 02:04:59;;;;;;;7.47;5.28;;;10.70;99.90;;;;;;5090165;28;19926;-70
2021/11/10 02:07:26;;;;;;;8.90;4.65;;;10.70;99.90;;;;;;5089771;28;20058;-71
2021/11/10 02:09:53;;;;;;;7.65;5.28;;;10.70;99.90;;;;;;5088399;28;20040;-71
2021/11/10 02:12:23;;;;;;;7.35;4.28;;;10.60;99.90;;;;;;5088342;28;20059;-71
2021/11/10 02:14:49;;;;;;;6.22;5.10;;;10.70;99.90;;;;;;5089439;28;20052;-70
2021/11/10 02:17:21;;;;;;;6.28;4.75;;;10.80;99.90;;;;;;5090823;28;20428;-71
2021/11/10 02:19:48;;;;;;;10.05;5.20;;;10.80;99.90;;;;;;5072044;28;20108;-70
2021/11/10 02:22:16;;;;;;;7.93;6.28;;;10.80;99.90;;;;;;5090948;28;20099;-71
2021/11/10 02:24:44;;;;;;;5.22;4.50;;;10.80;99.90;;;;;;5090920;28;20480;-70
2021/11/10 02:27:18;;;;;;;8.02;4.25;;;10.80;99.90;;;;;;5089369;28;20040;-69
2021/11/10 02:29:45;;;;;;;8.65;4.50;;;10.80;99.90;;;;;;5090009;28;20173;-70
2021/11/10 02:32:13;;;;;;;6.35;4.35;;;10.80;99.90;;;;;;5090022;28;20052;-69
2021/11/10 02:34:40;;;;;;;9.18;4.57;;;10.90;99.90;;;;;;5073968;28;20040;-70
2021/11/10 02:37:08;;;;;;;9.13;4.80;;;10.90;99.90;;;;;;5106365;28;20051;-70
2021/11/10 02:39:36;;;;;;;6.53;4.22;;;10.90;99.90;;;;;;5089877;28;20051;-69
2021/11/10 02:42:05;;;;;;;5.40;4.60;;;11.00;99.90;;;;;;5054374;28;20102;-69
2021/11/10 02:44:32;;;;;;;5.00;4.10;;;10.90;99.90;;;;;;5084226;28;20453;-69
2021/11/10 02:46:59;;;;;;;7.32;3.90;;;10.90;99.90;;;;;;5090143;28;20055;-70
2021/11/10 02:49:26;;;;;;;5.57;3.65;;;11.00;99.90;;;;;;5089934;28;20476;-69
2021/11/10 02:52:03;;;;;;;6.28;3.63;;;11.00;99.90;;;;;;5092195;28;20040;-69
2021/11/10 02:54:31;;;;;;;4.10;3.17;;;11.00;99.90;;;;;;5101733;28;20067;-69
2021/11/10 02:57:00;;;;;;;4.25;3.13;;;11.00;99.90;;;;;;5072521;28;20102;-69
2021/11/10 02:59:27;;;;;;;4.43;3.25;;;11.10;99.90;;;;;;5073013;28;20048;-70
2021/11/10 03:01:56;;;;;;;4.43;3.00;;;11.10;99.90;;;;;;5089777;28;20048;-69
2021/11/10 03:04:27;;;;;;;7.60;3.92;;;11.10;99.90;;;;;;5072842;28;20093;-68
2021/11/10 03:06:55;;;;;;;4.82;3.38;;;11.10;99.90;;;;;;5090076;28;20048;-70
2021/11/10 03:09:24;;;;;;;4.80;2.75;;;11.20;99.90;;;;;;5072652;28;20487;-69
2021/11/10 03:11:51;;;;;;;4.20;2.97;;;11.20;99.90;;;;;;5089231;28;20044;-71
2021/11/10 03:14:19;;;;;;;7.28;3.13;;;11.20;99.90;;;;;;5089288;28;20063;-70
2021/11/10 03:16:46;;;;;;;4.95;3.55;;;11.20;99.90;;;;;;5089088;28;20508;-70
2021/11/10 03:19:13;;;;;;;4.00;3.30;;;11.20;99.90;;;;;;5072594;28;20128;-70
2021/11/10 03:21:41;;;;;;;6.55;4.15;;;11.20;99.90;;;;;;5089715;28;20483;-70
2021/11/10 03:24:08;;;;;;;4.60;3.85;;;11.20;99.90;;;;;;5092936;28;20057;-70
2021/11/10 03:26:35;;;;;;;7.57;4.40;;;11.20;99.90;;;;;;5089898;28;20104;-70
2021/11/10 03:29:03;;;;;;;7.22;4.72;;;11.20;99.90;;;;;;5087543;28;20480;-69
2021/11/10 03:31:34;;;;;;;6.82;5.50;;;11.20;99.90;;;;;;5088768;28;20055;-69
2021/11/10 03:34:01;;;;;;;8.98;6.18;;;11.20;99.90;;;;;;5071455;28;20077;-69
2021/11/10 03:36:28;;;;;;;8.60;5.70;;;11.20;99.90;;;;;;5089027;28;20245;-68
2021/11/10 03:38:55;;;;;;;9.80;6.03;;;11.20;99.90;;;;;;5072618;28;20040;-69
2021/11/10 03:41:22;;;;;;;10.90;6.10;;;11.20;99.90;;;;;;5088332;28;20083;-69
2021/11/10 03:43:52;;;;;;;9.27;6.95;;;11.20;99.90;;;;;;5071973;28;20075;-70
2021/11/10 03:46:20;;;;;;;9.90;7.30;;;11.20;99.90;;;;;;5089461;28;20518;-70
2021/11/10 03:48:47;;;;;;;8.00;6.20;;;11.20;99.90;;;;;;5088779;28;20044;-69
2021/11/10 03:51:15;;;;;;;11.95;6.15;;;11.20;99.90;;;;;;5072059;28;20456;-70
2021/11/10 03:53:42;;;;;;;9.45;6.20;;;11.10;99.90;;;;;;5077809;28;20472;-70
2021/11/10 03:56:09;;;;;;;9.85;6.15;;;11.10;99.90;;;;;;5088236;28;20047;-71
2021/11/10 03:58:36;;;;;;;8.52;7.00;;;11.10;99.90;;;;;;5089417;28;20496;-69
2021/11/10 04:01:04;;;;;;;8.30;5.22;;;11.10;99.90;;;;;;5072027;28;20470;-70
2021/11/10 04:03:33;;;;;;;9.73;6.47;;;11.20;99.90;;;;;;5088624;28;20343;-68
2021/11/10 04:05:59;;;;;;;9.95;6.10;;;11.20;99.90;;;;;;5089135;28;20285;-71
2021/11/10 04:08:27;;;;;;;11.05;6.38;;;11.20;99.90;;;;;;5090114;28;20052;-70
2021/11/10 04:10:55;;;;;;;9.18;5.82;;;11.20;99.90;;;;;;5071892;28;20048;-69
2021/11/10 04:13:22;;;;;;;8.00;5.65;;;11.20;99.90;;;;;;5088965;28;20090;-69
2021/11/10 04:15:49;;;;;;;11.05;6.60;;;11.30;99.90;;;;;;5089522;28;20059;-70
2021/11/10 04:18:17;;;;;;;7.80;6.15;;;11.30;99.90;;;;;;5088514;28;20044;-70
2021/11/10 04:20:43;;;;;;;8.10;5.43;;;11.30;99.90;;;;;;5088573;28;20052;-69
2021/11/10 04:23:10;;;;;;;7.55;5.32;;;11.40;99.90;;;;;;5087103;28;20063;-69
2021/11/10 04:25:38;;;;;;;8.23;6.25;;;11.40;99.90;;;;;;5089262;28;20514;-68
2021/11/10 04:28:05;;;;;;;6.60;4.88;;;11.40;99.90;;;;;;5086332;28;20060;-69
2021/11/10 04:30:33;;;;;;;9.93;5.28;;;11.30;99.90;;;;;;5088528;28;20051;-69
2021/11/10 04:33:00;;;;;;;8.40;5.40;;;11.30;99.90;;;;;;5087079;28;20044;-69
2021/11/10 04:35:27;;;;;;;5.97;4.90;;;11.30;99.90;;;;;;5087261;28;20048;-71
2021/11/10 04:37:54;;;;;;;6.53;5.07;;;11.30;99.90;;;;;;5089501;28;20037;-70
2021/11/10 04:40:21;;;;;;;8.02;4.80;;;11.20;99.90;;;;;;5072403;28;20491;-68
2021/11/10 04:42:48;;;;;;;10.50;5.68;;;11.30;99.90;;;;;;5092897;28;20101;-70
2021/11/10 04:45:23;;;;;;;8.90;5.22;;;11.20;99.90;;;;;;5094262;28;20407;-70
2021/11/10 04:47:50;;;;;;;8.65;6.50;;;11.20;99.90;;;;;;5096083;28;20040;-69
2021/11/10 04:50:17;;;;;;;9.10;6.07;;;11.20;99.90;;;;;;5075376;28;20070;-69
2021/11/10 04:52:46;;;;;;;8.07;5.68;;;11.20;99.90;;;;;;5098313;28;20055;-69
2021/11/10 04:55:14;;;;;;;8.93;6.00;;;11.20;99.90;;;;;;5091751;28;20059;-69
2021/11/10 04:57:41;;;;;;;9.57;6.45;;;11.20;99.90;;;;;;5091892;28;20052;-68
2021/11/10 05:00:09;;;;;;;7.82;5.03;;;11.10;99.90;;;;;;5093960;28;20092;-69
2021/11/10 05:02:37;;;;;;;9.60;6.33;;;11.10;99.90;;;;;;5092110;28;20055;-69
2021/11/10 05:05:05;;;;;;;8.38;5.80;;;11.10;99.90;;;;;;5091603;28;20092;-68
2021/11/10 05:07:32;;;;;;;11.98;6.32;;;10.90;99.90;;;;;;5092509;28;20407;-69
2021/11/10 05:09:59;;;;;;;8.50;6.18;;;10.90;99.90;;;;;;5075091;28;20056;-69
2021/11/10 05:12:26;;;;;;;11.80;5.95;;;10.80;99.90;;;;;;5092129;28;20044;-70
2021/11/10 05:14:56;;;;;;;10.18;6.88;;;10.70;99.90;;;;;;5093913;28;20051;-69
2021/11/10 05:17:23;;;;;;;;;;;10.70;99.90;;;;;;5091525;28;20471;-69
2021/11/10 05:19:50;;;;;;;7.65;5.55;;;10.60;99.90;;;;;;5092704;28;19920;-68
2021/11/10 05:22:35;;;;;;;11.10;6.60;;;10.60;99.90;;;;;;5088164;28;20056;-69
2021/11/10 05:25:02;;;;;;;9.15;6.65;;;10.60;99.90;;;;;;5091787;28;20099;-70
2021/11/10 05:27:29;;;;;;;10.23;7.22;;;10.70;99.90;;;;;;5091847;28;20055;-69
2021/11/10 05:29:56;;;;;;;10.52;6.78;;;10.70;99.90;;;;;;5091266;28;20395;-68
2021/11/10 05:32:23;;;;;;;9.32;6.85;;;10.80;99.90;;;;;;5092314;28;20055;-69
2021/11/10 05:34:50;;;;;;;8.07;6.72;;;10.80;99.90;;;;;;5092882;28;20074;-70
2021/11/10 05:37:18;;;;;;;9.73;6.63;;;10.80;99.90;;;;;;5091141;28;20126;-69
2021/11/10 05:39:45;;;;;;;9.13;6.50;;;10.80;99.90;;;;;;5091748;28;20454;-70
2021/11/10 05:42:13;;;;;;;10.57;7.50;;;10.90;99.90;;;;;;5090265;28;20135;-69
2021/11/10 05:44:41;;;;;;;8.20;7.25;;;10.90;99.90;;;;;;5092180;28;20097;-69
2021/11/10 05:47:09;;;;;;;9.82;6.97;;;11.00;99.90;;;;;;5092675;28;20678;-69
2021/11/10 05:49:37;;;;;;;10.32;7.30;;;11.00;99.90;;;;;;5090868;28;20073;-70
2021/11/10 05:52:06;;;;;;;11.77;7.32;;;11.10;99.90;;;;;;5094644;28;20128;-70
2021/11/10 05:54:33;;;;;;;12.93;7.63;;;11.10;99.90;;;;;;5093499;27;20074;-70
2021/11/10 05:57:01;;;;;;;11.45;6.93;;;11.20;99.90;;;;;;5069783;28;20048;-69
2021/11/10 05:59:31;;;;;;;11.43;7.20;;;11.20;99.90;;;;;;5090516;28;20040;-69
2021/11/10 06:01:59;;;;;;;8.77;6.93;;;11.30;99.90;;;;;;5091889;28;20094;-70
2021/11/10 06:04:26;;;;;;;8.98;5.97;;;11.30;99.90;;;;;;5090465;28;20044;-68
2021/11/10 06:06:53;;;;;;;10.45;6.65;;;11.30;99.90;;;;;;5090356;28;20048;-69
2021/11/10 06:09:26;;;;;;;8.00;6.05;;;11.30;99.90;;;;;;5090747;28;20051;-70
2021/11/10 06:11:52;;;;;;;9.93;6.45;;;11.40;99.90;;;;;;5090001;28;20047;-70
2021/11/10 06:14:19;;;;;;;9.77;6.63;;;11.40;99.90;;;;;;5091626;28;20095;-69
2021/11/10 06:16:46;;;;;;;8.85;7.05;;;11.40;99.90;;;;;;5090430;28;20384;-70
2021/11/10 06:19:13;;;;;;;8.55;7.28;;;11.50;99.90;;;;;;5090271;28;20089;-69
2021/11/10 06:21:40;;;;;;;10.98;7.50;;;11.50;99.90;;;;;;5089168;28;20044;-69
2021/11/10 06:24:07;;;;;;;9.77;7.75;;;11.50;99.90;;;;;;5087724;28;20059;-69
2021/11/10 06:26:35;;;;;;;9.57;7.13;;;11.50;99.90;;;;;;5091097;28;20051;-69
2021/11/10 06:29:02;;;;;;;12.68;8.10;;;11.50;99.90;;;;;;5085528;28;20079;-69
2021/11/10 06:31:29;;;;;;;13.52;8.55;;;11.50;99.90;;;;;;5090395;28;20135;-68
2021/11/10 06:33:56;;;;;;;13.68;8.48;;;11.60;99.90;;;;;;5088260;28;20768;-69
2021/11/10 06:36:23;;;;;;;10.55;8.48;;;11.60;99.90;;;;;;5090138;28;20052;-69
2021/11/10 06:38:50;;;;;;;14.88;8.95;;;11.60;99.90;;;;;;5091288;28;20048;-69
2021/11/10 06:41:20;;;;;;;10.80;8.68;;;11.60;99.90;;;;;;5088920;28;20086;-69
2021/11/10 06:43:47;;;;;;;;;;;11.60;99.90;;;;;;5093862;28;20051;-68
2021/11/10 06:46:14;;;;;;;90.95;81.50;;;11.60;99.90;;;;;;5090775;28;19981;-69
2021/11/10 06:48:41;;;;;;;60.60;47.53;;;11.60;99.90;;;;;;5089558;28;20112;-68
2021/11/10 06:51:08;;;;;;;28.80;23.00;;;11.70;99.90;;;;;;5089370;28;20479;-69
2021/11/10 06:53:35;;;;;;;15.75;12.55;;;11.70;99.90;;;;;;5094303;28;20053;-67
2021/11/10 06:56:02;;;;;;;14.88;10.82;;;11.70;99.90;;;;;;5087660;28;20066;-70
2021/11/10 06:58:29;;;;;;;12.48;8.00;;;11.70;99.90;;;;;;5087822;28;20416;-67
2021/11/10 07:00:56;;;;;;;11.13;8.85;;;11.80;99.90;;;;;;5086941;28;20056;-68
2021/11/10 07:03:24;;;;;;;11.05;8.32;;;11.80;99.90;;;;;;5086790;28;20048;-67
2021/11/10 07:05:51;;;;;;;9.25;7.07;;;11.80;99.90;;;;;;5088270;28;20055;-67
2021/11/10 07:08:18;;;;;;;8.80;7.53;;;11.80;99.90;;;;;;5087317;28;20055;-66
2021/11/10 07:10:44;;;;;;;9.35;7.82;;;11.80;99.90;;;;;;5087554;28;20051;-67
2021/11/10 07:13:11;;;;;;;12.60;11.13;;;11.80;99.90;;;;;;5088436;28;20476;-67
2021/11/10 07:15:38;;;;;;;23.75;18.13;;;11.80;99.90;;;;;;5088391;28;20143;-67
2021/11/10 07:18:05;;;;;;;19.63;15.52;;;11.80;99.90;;;;;;5087629;28;20048;-68
2021/11/10 07:20:32;;;;;;;13.82;11.65;;;11.80;99.90;;;;;;5088232;28;20044;-68
2021/11/10 07:22:59;;;;;;;12.57;9.27;;;11.80;99.90;;;;;;5086522;28;20554;-68
2021/11/10 07:25:27;;;;;;;9.45;7.82;;;11.90;99.90;;;;;;5073334;28;20052;-68
2021/11/10 07:27:54;;;;;;;10.50;8.68;;;11.80;99.90;;;;;;5086824;28;20048;-70
2021/11/10 07:30:21;;;;;;;11.35;7.85;;;11.90;99.90;;;;;;5084040;28;20052;-69
2021/11/10 07:32:49;;;;;;;11.38;7.78;;;11.90;99.90;;;;;;5087388;28;20139;-69
2021/11/10 07:35:17;;;;;;;9.52;7.63;;;11.90;99.90;;;;;;5090146;28;20063;-69
2021/11/10 07:37:45;;;;;;;11.07;7.53;;;11.90;99.90;;;;;;5088572;28;20060;-70
2021/11/10 07:40:13;;;;;;;10.02;8.73;;;11.90;99.90;;;;;;5087073;28;20048;-74
2021/11/10 07:42:42;;;;;;;10.70;8.32;;;12.00;99.90;;;;;;5087915;28;20051;-69
2021/11/10 07:45:18;;;;;;;10.80;7.65;;;12.00;99.90;;;;;;5076381;28;20036;-71
2021/11/10 07:47:47;;;;;;;11.90;8.02;;;12.00;99.90;;;;;;5086120;28;20123;-69
2021/11/10 07:50:16;;;;;;;10.65;8.02;;;12.00;99.90;;;;;;5066304;28;20044;-69
2021/11/10 07:52:43;;;;;;;10.45;8.38;;;12.00;99.90;;;;;;5089893;28;20047;-69
2021/11/10 07:55:10;;;;;;;12.00;8.65;;;12.00;99.90;;;;;;5084652;28;20610;-68
2021/11/10 07:57:38;;;;;;;12.27;8.55;;;12.00;99.90;;;;;;5086750;28;20143;-69
2021/11/10 08:00:21;;;;;;;9.38;8.35;;;12.00;99.90;;;;;;5081346;28;20044;-69
2021/11/10 08:02:48;;;;;;;25.40;12.00;;;12.00;99.90;;;;;;5085826;28;20056;-67
2021/11/10 08:05:16;;;;;;;63.70;52.72;;;12.10;99.90;;;;;;5086071;28;20095;-71
2021/11/10 08:07:43;;;;;;;31.60;27.17;;;12.10;99.90;;;;;;5065344;28;20104;-67
2021/11/10 08:10:11;;;;;;;18.48;16.17;;;12.10;99.90;;;;;;5083057;28;20048;-67
2021/11/10 08:12:38;;;;;;;12.07;10.57;;;12.10;99.90;;;;;;5083744;28;20047;-67
2021/11/10 08:15:07;;;;;;;12.15;9.07;;;12.10;99.90;;;;;;5084083;28;20096;-69
2021/11/10 08:17:35;;;;;;;10.85;9.05;;;12.20;99.90;;;;;;5071403;28;20092;-71
2021/11/10 08:20:09;;;;;;;15.57;8.38;;;12.10;99.90;;;;;;5070303;28;20049;-68
2021/11/10 08:22:36;;;;;;;12.68;9.50;;;12.10;99.90;;;;;;5095922;28;20052;-68
2021/11/10 08:25:05;;;;;;;11.23;8.60;;;12.10;99.90;;;;;;5094157;28;20059;-76
2021/11/10 08:27:34;;;;;;;11.73;8.43;;;12.10;99.90;;;;;;5104399;28;20044;-71
2021/11/10 08:30:03;;;;;;;;;;;12.00;99.90;;;;;;5090455;28;20048;-71
2021/11/10 08:32:30;;;;;;;12.47;8.57;;;12.10;99.90;;;;;;5090226;28;19928;-69
2021/11/10 08:34:57;;;;;;;14.43;9.15;;;12.00;99.90;;;;;;5091935;28;20055;-71
2021/11/10 08:37:24;;;;;;;10.88;9.50;;;12.10;99.90;;;;;;5090738;28;20127;-72
2021/11/10 08:39:51;;;;;;;14.43;10.27;;;12.10;99.90;;;;;;5090724;28;20458;-72
2021/11/10 08:42:18;;;;;;;11.25;9.43;;;12.10;99.90;;;;;;5091062;28;20055;-71
2021/11/10 08:44:47;;;;;;;15.70;9.90;;;12.10;99.90;;;;;;5092100;28;20048;-72
2021/11/10 08:47:14;;;;;;;10.73;9.53;;;12.20;99.90;;;;;;5092152;28;20044;-72
2021/11/10 08:49:41;;;;;;;11.85;10.07;;;12.20;99.90;;;;;;5096623;28;20047;-70
2021/11/10 08:52:10;;;;;;;12.48;9.05;;;12.20;99.90;;;;;;5094658;28;20092;-74
2021/11/10 08:54:37;;;;;;;11.70;10.45;;;12.20;99.90;;;;;;5092254;28;20837;-72
2021/11/10 08:57:04;;;;;;;11.30;9.82;;;12.30;99.90;;;;;;5091938;28;20486;-69
2021/11/10 08:59:31;;;;;;;11.48;8.90;;;12.40;99.90;;;;;;5090210;28;20044;-70
2021/11/10 09:02:01;;;;;;;11.98;9.52;;;12.40;99.90;;;;;;5091931;28;20044;-70
2021/11/10 09:04:28;;;;;;;12.65;9.73;;;12.50;99.90;;;;;;5072354;28;20105;-70
2021/11/10 09:06:55;;;;;;;9.77;8.60;;;12.60;99.90;;;;;;5081264;28;20047;-70
2021/11/10 09:09:22;;;;;;;9.15;7.85;;;12.70;99.90;;;;;;5092013;28;20055;-70
2021/11/10 09:11:50;;;;;;;7.82;5.72;;;12.70;99.90;;;;;;5091299;28;20039;-73
2021/11/10 09:14:17;;;;;;;8.02;6.28;;;12.70;99.90;;;;;;5092045;28;20084;-70
2021/11/10 09:16:46;;;;;;;7.22;6.00;;;12.70;99.90;;;;;;5091668;28;20055;-74
2021/11/10 09:19:14;;;;;;;8.15;5.15;;;12.70;99.90;;;;;;5051875;28;20095;-73
2021/11/10 09:21:41;;;;;;;36.30;30.65;;;12.70;99.90;;;;;;5091724;28;20074;-72
2021/11/10 09:24:09;;;;;;;10.57;8.88;;;12.70;99.90;;;;;;5074321;28;20044;-65
2021/11/10 09:26:37;;;;;;;9.02;6.15;;;12.70;99.90;;;;;;5089511;28;20044;-71
2021/11/10 09:29:04;;;;;;;6.00;5.28;;;12.70;99.90;;;;;;5095562;28;20123;-74
2021/11/10 09:31:32;;;;;;;20.13;15.88;;;12.80;99.90;;;;;;5114992;28;20494;-70
2021/11/10 09:34:02;;;;;;;16.17;14.20;;;12.80;99.90;;;;;;5103497;28;20048;-70
2021/11/10 09:36:29;;;;;;;6.88;5.65;;;12.80;99.90;;;;;;5094928;28;20068;-71
2021/11/10 09:38:56;;;;;;;4.93;4.43;;;12.90;99.90;;;;;;5091600;28;20048;-70
2021/11/10 09:41:23;;;;;;;5.40;4.00;;;13.00;99.90;;;;;;5089003;28;20499;-70
2021/11/10 09:43:50;;;;;;;5.03;3.83;;;13.10;99.90;;;;;;5090251;28;20120;-71
2021/11/10 09:46:25;;;;;;;5.97;3.78;;;13.20;99.90;;;;;;5092548;28;20139;-71
2021/11/10 09:48:53;;;;;;;5.22;4.20;;;13.30;99.90;;;;;;5090228;28;20075;-71
2021/11/10 09:51:20;;;;;;;6.90;5.78;;;13.50;99.90;;;;;;5074480;28;20054;-70
2021/11/10 09:53:47;;;;;;;4.35;3.08;;;13.60;99.90;;;;;;5093621;28;20048;-71
2021/11/10 09:56:14;;;;;;;4.03;3.03;;;13.70;99.90;;;;;;5090667;28;20052;-71
2021/11/10 09:58:42;;;;;;;4.97;3.53;;;13.70;99.90;;;;;;5090622;28;20052;-71
2021/11/10 10:01:09;;;;;;;6.57;3.75;;;13.80;99.90;;;;;;5091047;28;20099;-72
2021/11/10 10:03:37;;;;;;;6.65;5.80;;;13.80;99.90;;;;;;5090874;28;20491;-70
2021/11/10 10:06:04;;;;;;;6.65;6.00;;;13.90;99.90;;;;;;5091738;28;20058;-70
2021/11/10 10:08:31;;;;;;;4.80;3.78;;;14.00;99.90;;;;;;5090996;28;20052;-71
2021/11/10 10:11:01;;;;;;;4.40;3.53;;;14.00;99.90;;;;;;5091873;28;20437;-71
2021/11/10 10:13:29;;;;;;;4.57;3.50;;;14.00;99.90;;;;;;5090124;28;20052;-70
2021/11/10 10:15:57;;;;;;;4.03;3.40;;;14.10;99.90;;;;;;5052616;28;20492;-72
2021/11/10 10:18:26;;;;;;;3.38;2.60;;;14.10;99.90;;;;;;5072823;28;20174;-71
2021/11/10 10:21:28;;;;;;;4.20;2.83;;;14.20;99.90;;;;;;5083464;28;20044;-73
2021/11/10 10:24:50;;;;;;;48.15;41.83;;;14.20;99.90;;;;;;5110675;28;20183;-73
2021/11/10 10:27:32;;;;;;;4.47;3.33;;;14.20;99.90;;;;;;5095882;28;20063;-72
2021/11/10 10:30:21;;;;;;;4.72;2.60;;;14.10;99.90;;;;;;5090678;28;20055;-72
2021/11/10 10:32:59;;;;;;;3.30;2.20;;;14.10;99.90;;;;;;5080303;28;20092;-75
2021/11/10 10:35:39;;;;;;;5.72;2.15;;;14.20;99.90;;;;;;5088652;28;20051;-74
2021/11/10 10:38:07;;;;;;;5.25;2.85;;;14.20;99.90;;;;;;5090267;28;20048;-74
2021/11/10 10:40:35;;;;;;;3.47;2.10;;;14.20;99.90;;;;;;5090700;28;20058;-74
2021/11/10 10:43:02;;;;;;;6.45;3.10;;;14.20;99.90;;;;;;5089765;28;20048;-74
2021/11/10 10:45:40;;;;;;;2.90;1.95;;;14.30;99.90;;;;;;5090162;28;20044;-73
2021/11/10 10:48:09;;;;;;;3.33;2.07;;;14.30;99.90;;;;;;5092863;28;20411;-74
2021/11/10 10:50:40;;;;;;;3.35;2.65;;;14.30;99.90;;;;;;5090258;28;20093;-74
2021/11/10 10:53:08;;;;;;;4.20;2.35;;;14.30;99.90;;;;;;5085379;28;20044;-75
2021/11/10 10:55:37;;;;;;;6.40;2.95;;;14.30;99.90;;;;;;5089511;28;20483;-75
2021/11/10 10:58:07;;;;;;;3.72;2.40;;;14.30;99.90;;;;;;5073089;28;20052;-74
2021/11/10 11:00:36;;;;;;;4.30;3.03;;;14.20;99.90;;;;;;5089496;28;20415;-75
2021/11/10 11:03:22;;;;;;;;;;;14.20;99.90;;;;;;5091395;28;20048;-74
2021/11/10 11:05:49;;;;;;;3.30;2.25;;;14.20;99.90;;;;;;5091393;28;19989;-75
2021/11/10 11:08:34;;;;;;;3.50;2.67;;;14.20;99.90;;;;;;5090839;28;20056;-71
2021/11/10 11:11:18;;;;;;;3.50;2.63;;;14.30;99.90;;;;;;5074010;28;20048;-74
2021/11/10 11:13:53;;;;;;;2.88;2.10;;;14.30;99.90;;;;;;5074998;28;20136;-74
2021/11/10 11:16:25;;;;;;;2.70;1.80;;;14.40;99.90;;;;;;5089757;28;20044;-74
2021/11/10 11:19:15;;;;;;;3.00;1.98;;;14.40;99.90;;;;;;5089610;28;20060;-73
2021/11/10 11:21:50;;;;;;;3.45;2.05;;;14.50;99.90;;;;;;5091503;28;20044;-74
2021/11/10 11:24:28;;;;;;;2.60;1.70;;;14.50;99.90;;;;;;5093073;28;20447;-73
2021/11/10 11:26:55;;;;;;;2.50;1.47;;;14.60;99.90;;;;;;5099198;28;20050;-74
2021/11/10 11:29:24;;;;;;;6.38;3.92;;;14.60;99.90;;;;;;5089019;28;20079;-75
2021/11/10 11:31:55;;;;;;;19.35;15.70;;;14.70;99.90;;;;;;5073465;28;20514;-76
2021/11/10 11:34:22;;;;;;;16.27;14.55;;;14.60;99.90;;;;;;5127073;27;20051;-71
2021/11/10 11:36:50;;;;;;;10.57;7.88;;;14.60;99.90;;;;;;5092938;28;20446;-71
2021/11/10 11:39:19;;;;;;;2.23;1.53;;;14.60;99.90;;;;;;5102789;28;20456;-71
2021/11/10 11:41:46;;;;;;;7.28;6.35;;;14.50;99.90;;;;;;5079950;28;20790;-71
2021/11/10 11:44:13;;;;;;;21.80;15.07;;;14.50;99.90;;;;;;5090422;28;20044;-72
2021/11/10 11:46:44;;;;;;;5.90;3.55;;;14.50;99.90;;;;;;5090532;28;20048;-73
2021/11/10 11:49:13;;;;;;;3.53;2.40;;;14.50;99.90;;;;;;5088967;28;20064;-75
2021/11/10 11:51:41;;;;;;;4.07;1.95;;;14.60;99.90;;;;;;5072714;28;20055;-72
2021/11/10 11:54:08;;;;;;;2.25;1.30;;;14.60;99.90;;;;;;5084197;28;20047;-73
2021/11/10 11:56:35;;;;;;;3.33;1.40;;;14.60;99.90;;;;;;5071941;28;20069;-73
2021/11/10 11:59:02;;;;;;;3.05;1.40;;;14.50;99.90;;;;;;5071739;28;20063;-72
2021/11/10 12:01:32;;;;;;;2.88;1.20;;;14.50;99.90;;;;;;5088300;28;20048;-72
2021/11/10 12:04:07;;;;;;;5.13;1.40;;;14.50;99.90;;;;;;5088981;28;20044;-71
2021/11/10 12:06:45;;;;;;;194.20;158.35;;;14.50;99.90;;;;;;5072758;28;20056;-71
2021/11/10 12:09:17;;;;;;;14.63;12.50;;;14.50;99.90;;;;;;5088831;28;20051;-76
2021/11/10 12:11:48;;;;;;;4.18;3.35;;;14.50;99.90;;;;;;5071509;28;20044;-73
2021/11/10 12:14:28;;;;;;;4.07;1.60;;;14.50;99.90;;;;;;5087576;28;20044;-71
2021/11/10 12:17:16;;;;;;;6.53;4.13;;;14.50;99.90;;;;;;5088684;28;20044;-71
2021/11/10 12:20:03;;;;;;;2.88;1.52;;;14.60;99.90;;;;;;5088485;28;20047;-72
2021/11/10 12:22:52;;;;;;;2.47;1.30;;;14.60;99.90;;;;;;5089436;28;20127;-68
2021/11/10 12:25:19;;;;;;;2.35;1.60;;;14.70;99.90;;;;;;5092802;28;20131;-69
2021/11/10 12:27:48;;;;;;;1.67;1.35;;;14.80;99.90;;;;;;5071795;28;20051;-70
2021/11/10 12:30:19;;;;;;;;;;;14.80;99.90;;;;;;5088563;28;20055;-73
2021/11/10 12:32:48;;;;;;;2.88;1.70;;;14.90;99.90;;;;;;5089687;28;19965;-75
2021/11/10 12:35:40;;;;;;;2.47;1.50;;;14.80;99.90;;;;;;5088821;28;20040;-69
2021/11/10 12:38:24;;;;;;;3.95;2.78;;;14.80;99.90;;;;;;5088912;28;20321;-68
2021/11/10 12:41:06;;;;;;;3.70;1.70;;;14.70;99.90;;;;;;5089217;28;20051;-69
2021/11/10 12:43:42;;;;;;;3.03;2.00;;;14.60;99.90;;;;;;5088292;28;20150;-67
2021/11/10 12:46:17;;;;;;;3.60;2.10;;;14.60;99.90;;;;;;5088083;28;20044;-70
2021/11/10 12:48:45;;;;;;;3.67;2.20;;;14.50;99.90;;;;;;5088329;28;20052;-68
2021/11/10 12:51:27;;;;;;;6.03;2.28;;;14.60;99.90;;;;;;5072025;28;20116;-68
2021/11/10 12:54:01;;;;;;;3.65;2.20;;;14.60;99.90;;;;;;5094239;28;20066;-68
2021/11/10 12:56:56;;;;;;;2.40;1.65;;;14.70;99.90;;;;;;5085455;28;20052;-69